createdAt,value
2019-05-10T00:02:28.611Z,10.5
2019-05-10T00:07:28.020Z,10.5
2019-05-10T00:12:27.939Z,10.4
2019-05-10T00:17:27.571Z,10.4
2019-05-10T00:22:27.290Z,10.5
2019-05-10T00:27:28.488Z,10.4
2019-05-10T00:32:28.609Z,10.5
2019-05-10T00:37:27.635Z,10.5
2019-05-10T00:42:27.536Z,10.5
2019-05-10T00:47:27.541Z,10.5
2019-05-10T00:52:28.147Z,10.5
2019-05-10T00:57:29.319Z,10.4
2019-05-10T01:02:27.645Z,10.4
2019-05-10T01:07:28.295Z,10.4
2019-05-10T01:12:27.557Z,10.5
2019-05-10T01:17:27.420Z,10.4
2019-05-10T01:22:28.510Z,10.5
2019-05-10T01:27:27.754Z,10.6
2019-05-10T01:32:27.518Z,10.7
2019-05-10T01:37:27.726Z,10.6
2019-05-10T01:42:28.274Z,10.7
2019-05-10T01:47:27.353Z,10.6
2019-05-10T01:52:27.710Z,10.6
2019-05-10T01:57:27.658Z,10.4
2019-05-10T02:02:27.678Z,10.4
2019-05-10T02:07:28.392Z,10.4
2019-05-10T02:12:27.616Z,10.3
2019-05-10T02:17:27.750Z,10.3
2019-05-10T02:22:28.083Z,10.3
2019-05-10T02:27:27.496Z,10.2
2019-05-10T02:32:27.938Z,10.1
2019-05-10T02:37:28.425Z,10.1
2019-05-10T02:42:27.800Z,10.0
2019-05-10T02:47:28.070Z,10.0
2019-05-10T02:52:27.760Z,10.0
2019-05-10T02:57:27.675Z,9.9
2019-05-10T03:02:27.388Z,9.9
2019-05-10T03:07:28.607Z,9.9
2019-05-10T03:12:28.105Z,9.8
2019-05-10T03:17:28.598Z,9.7
2019-05-10T03:22:27.652Z,9.7
2019-05-10T03:27:28.420Z,9.7
2019-05-10T03:32:28.621Z,9.7
2019-05-10T03:37:28.544Z,9.7
2019-05-10T03:42:29.590Z,9.7
2019-05-10T03:47:28.505Z,9.8
2019-05-10T03:52:28.133Z,9.8
2019-05-10T03:57:28.740Z,9.7
2019-05-10T04:02:28.588Z,9.7
2019-05-10T04:07:29.187Z,9.7
2019-05-10T04:12:28.565Z,9.6
2019-05-10T04:17:28.069Z,9.7
2019-05-10T04:22:28.402Z,9.7
2019-05-10T04:27:31.913Z,9.9
2019-05-10T04:32:29.749Z,9.9
2019-05-10T04:37:28.382Z,10.1
2019-05-10T04:42:29.269Z,10.4
2019-05-10T04:47:28.010Z,10.5
2019-05-10T04:52:28.226Z,10.5
2019-05-10T04:57:28.926Z,10.7
2019-05-10T05:02:27.997Z,10.7
2019-05-10T05:07:29.138Z,10.8
2019-05-10T05:12:28.731Z,10.9
2019-05-10T05:17:28.405Z,10.9
2019-05-10T05:22:28.063Z,11.1
2019-05-10T05:27:28.820Z,11.2
2019-05-10T05:32:28.587Z,11.2
2019-05-10T05:37:28.695Z,11.5
2019-05-10T05:42:29.478Z,11.4
2019-05-10T05:47:28.810Z,11.6
2019-05-10T05:52:28.460Z,11.6
2019-05-10T05:57:29.610Z,11.9
2019-05-10T06:02:28.273Z,11.9
2019-05-10T06:07:30.988Z,12.1
2019-05-10T06:12:28.386Z,12.1
2019-05-10T06:17:31.568Z,12.2
2019-05-10T06:22:28.764Z,12.3
2019-05-10T06:27:28.204Z,12.6
2019-05-10T06:32:28.170Z,12.7
2019-05-10T06:37:31.125Z,12.9
2019-05-10T06:42:34.138Z,13.1
2019-05-10T06:47:28.957Z,13.2
2019-05-10T06:52:29.614Z,13.3
2019-05-10T06:57:28.430Z,13.6
2019-05-10T07:02:32.298Z,13.5
2019-05-10T07:07:43.020Z,13.8
2019-05-10T07:12:30.219Z,14.4
2019-05-10T07:17:28.930Z,14.4
2019-05-10T07:22:29.133Z,14.5
2019-05-10T07:27:28.857Z,14.7
2019-05-10T07:32:30.375Z,14.8
2019-05-10T07:37:28.222Z,15.1
2019-05-10T07:42:27.640Z,15.7
2019-05-10T07:47:30.150Z,16.2
2019-05-10T07:52:27.859Z,16.4
2019-05-10T07:57:28.309Z,16.4
2019-05-10T08:02:28.562Z,16.8
2019-05-10T08:07:29.371Z,16.7
2019-05-10T08:12:28.809Z,16.9
2019-05-10T08:17:29.251Z,17.2
2019-05-10T08:22:32.659Z,17.3
2019-05-10T08:27:29.401Z,17.5
2019-05-10T08:32:29.843Z,17.4
2019-05-10T08:37:34.192Z,17.3
2019-05-10T08:42:40.669Z,17.6
2019-05-10T08:47:29.237Z,18.0
2019-05-10T08:52:31.563Z,17.9
2019-05-10T09:02:30.178Z,18.1
2019-05-10T09:07:29.314Z,17.8
2019-05-10T09:12:29.582Z,17.7
2019-05-10T09:17:28.475Z,18.0
2019-05-10T09:22:33.393Z,18.2
2019-05-10T09:27:29.405Z,18.1
2019-05-10T09:32:29.192Z,17.7
2019-05-10T09:37:27.669Z,17.5
2019-05-10T09:42:33.194Z,17.3
2019-05-10T09:47:28.260Z,17.2
2019-05-10T09:52:28.589Z,17.0
2019-05-10T09:57:31.915Z,16.9
2019-05-10T10:02:33.767Z,17.2
2019-05-10T10:07:33.161Z,17.3
2019-05-10T10:12:29.631Z,17.2
2019-05-10T10:17:30.713Z,17.6
2019-05-10T10:22:28.009Z,17.5
2019-05-10T10:27:34.369Z,17.6
2019-05-10T10:32:34.772Z,17.6
2019-05-10T10:37:31.250Z,17.8
2019-05-10T10:42:27.874Z,18.0
2019-05-10T10:47:32.074Z,18.3
2019-05-10T10:52:29.208Z,18.2
2019-05-10T10:57:28.279Z,18.2
2019-05-10T11:02:32.352Z,17.9
2019-05-10T11:07:30.315Z,17.8
2019-05-10T11:12:30.721Z,17.6
2019-05-10T11:17:30.208Z,17.9
2019-05-10T11:22:28.541Z,18.5
2019-05-10T11:27:30.707Z,18.9
2019-05-10T11:32:28.488Z,19.3
2019-05-10T11:37:32.480Z,19.1
2019-05-10T11:42:30.946Z,18.6
2019-05-10T11:47:30.626Z,18.0
2019-05-10T11:52:29.011Z,17.8
2019-05-10T11:57:28.264Z,18.2
2019-05-10T12:02:37.245Z,18.9
2019-05-10T12:07:34.934Z,19.8
2019-05-10T12:12:44.682Z,20.0
2019-05-10T12:17:28.440Z,20.0
2019-05-10T12:22:37.536Z,20.1
2019-05-10T12:27:40.010Z,20.0
2019-05-10T12:32:33.198Z,19.8
2019-05-10T12:37:30.593Z,19.5
2019-05-10T12:42:28.746Z,19.1
2019-05-10T12:47:30.533Z,18.3
2019-05-10T12:52:28.867Z,17.6
2019-05-10T12:57:28.451Z,16.8
2019-05-10T13:02:28.706Z,16.0
2019-05-10T13:07:28.827Z,15.2
2019-05-10T13:12:29.007Z,14.3
2019-05-10T13:17:28.974Z,14.3
2019-05-10T13:22:36.565Z,14.5
2019-05-10T13:27:28.521Z,15.8
2019-05-10T13:32:28.872Z,15.7
2019-05-10T13:37:27.583Z,16.3
2019-05-10T13:42:28.427Z,16.5
2019-05-10T13:47:27.764Z,17.4
2019-05-10T13:52:29.566Z,17.4
2019-05-10T13:57:27.907Z,18.4
2019-05-10T14:02:34.163Z,19.1
2019-05-10T14:07:29.042Z,19.0
2019-05-10T14:12:28.365Z,20.3
2019-05-10T14:17:29.002Z,20.5
2019-05-10T14:22:28.287Z,20.4
2019-05-10T14:27:29.695Z,19.8
2019-05-10T14:32:29.206Z,20.8
2019-05-10T14:37:28.068Z,22.8
2019-05-10T14:42:30.894Z,28.7
2019-05-10T14:47:28.629Z,28.6
2019-05-10T14:52:28.357Z,30.6
2019-05-10T14:57:29.001Z,32.7
2019-05-10T15:02:28.244Z,34.7
2019-05-10T15:07:29.276Z,35.3
2019-05-10T15:12:28.230Z,35.5
2019-05-10T15:17:30.151Z,37.6
2019-05-10T15:22:27.684Z,30.6
2019-05-10T15:27:28.555Z,24.5
2019-05-10T15:32:27.978Z,23.8
2019-05-10T15:37:28.331Z,23.7
2019-05-10T15:42:30.366Z,25.5
2019-05-10T15:47:29.188Z,24.5
2019-05-10T15:52:28.259Z,26.1
2019-05-10T15:57:31.838Z,26.0
2019-05-10T16:02:28.428Z,25.6
2019-05-10T16:07:28.401Z,24.9
2019-05-10T16:12:28.414Z,25.0
2019-05-10T16:17:28.160Z,24.9
2019-05-10T16:22:30.209Z,25.4
2019-05-10T16:27:33.830Z,25.4
2019-05-10T16:32:34.272Z,23.1
2019-05-10T16:37:28.437Z,23.1
2019-05-10T16:42:34.375Z,21.4
2019-05-10T16:47:28.573Z,20.3
2019-05-10T16:52:28.486Z,19.9
2019-05-10T16:57:31.856Z,19.9
2019-05-10T17:02:27.921Z,19.7
2019-05-10T17:07:28.567Z,19.5
2019-05-10T17:12:29.210Z,20.9
2019-05-10T17:17:31.102Z,20.8
2019-05-10T17:22:28.475Z,20.3
2019-05-10T17:27:27.879Z,20.3
2019-05-10T17:32:27.548Z,19.4
2019-05-10T17:37:29.760Z,18.7
2019-05-10T17:42:28.721Z,18.2
2019-05-10T17:47:32.143Z,17.9
2019-05-10T17:52:28.719Z,20.0
2019-05-10T17:57:28.601Z,21.5
2019-05-10T18:02:28.858Z,20.9
2019-05-10T18:07:28.579Z,20.7
2019-05-10T18:12:28.837Z,20.4
2019-05-10T18:17:28.315Z,19.9
2019-05-10T18:22:29.006Z,19.4
2019-05-10T18:27:29.281Z,18.7
2019-05-10T18:32:29.070Z,18.0
2019-05-10T18:37:27.745Z,17.4
2019-05-10T18:42:28.948Z,16.9
2019-05-10T18:47:28.712Z,16.5
2019-05-10T18:52:28.677Z,16.1
2019-05-10T18:57:27.479Z,15.8
2019-05-10T19:02:27.719Z,15.6
2019-05-10T19:07:28.182Z,15.4
2019-05-10T19:12:28.264Z,15.2
2019-05-10T19:17:27.999Z,14.8
2019-05-10T19:22:28.410Z,14.6
2019-05-10T19:27:28.350Z,14.6
2019-05-10T19:32:28.021Z,14.4
2019-05-10T19:37:29.972Z,14.3
2019-05-10T19:42:31.278Z,14.2
2019-05-10T19:47:28.128Z,14.1
2019-05-10T19:52:28.248Z,14.1
2019-05-10T19:57:28.064Z,14.1
2019-05-10T20:02:29.191Z,14.1
2019-05-10T20:07:43.226Z,14.0
2019-05-10T20:12:27.647Z,13.9
2019-05-10T20:17:28.687Z,13.8
2019-05-10T20:22:27.137Z,13.8
2019-05-10T20:27:28.193Z,13.7
2019-05-10T20:32:27.688Z,13.6
2019-05-10T20:37:28.037Z,13.6
2019-05-10T20:42:28.308Z,13.5
2019-05-10T20:47:29.829Z,13.3
2019-05-10T20:52:27.794Z,13.1
2019-05-10T20:57:27.509Z,13.0
2019-05-10T21:02:27.970Z,13.0
2019-05-10T21:07:28.924Z,13.0
2019-05-10T21:12:28.050Z,13.1
2019-05-10T21:17:27.632Z,13.1
2019-05-10T21:22:27.447Z,13.0
2019-05-10T21:27:27.878Z,12.9
2019-05-10T21:32:27.531Z,12.9
2019-05-10T21:37:28.188Z,12.9
2019-05-10T21:42:28.047Z,13.0
2019-05-10T21:47:28.317Z,12.8
2019-05-10T21:52:27.425Z,12.7
2019-05-10T21:57:27.621Z,12.6
2019-05-10T22:02:27.912Z,12.7
2019-05-10T22:07:28.316Z,12.7
2019-05-10T22:12:27.780Z,12.8
2019-05-10T22:23:06.037Z,12.6
2019-05-10T22:28:05.164Z,12.6
2019-05-10T22:33:04.400Z,12.6
2019-05-10T22:38:04.827Z,12.7
2019-05-10T22:43:05.065Z,12.7
2019-05-10T22:48:05.292Z,12.8
2019-05-10T22:53:04.808Z,12.7
2019-05-10T22:58:04.101Z,12.5
2019-05-10T23:03:05.428Z,12.4
2019-05-10T23:08:05.184Z,12.3
2019-05-10T23:12:27.106Z,12.3
2019-05-10T23:17:28.777Z,12.3
2019-05-10T23:22:28.062Z,12.5
2019-05-10T23:27:27.771Z,12.5
2019-05-10T23:32:27.652Z,12.7
2019-05-10T23:37:29.185Z,12.7
2019-05-10T23:42:28.822Z,12.7
2019-05-10T23:47:27.734Z,12.7
2019-05-10T23:52:27.960Z,12.7
2019-05-10T23:57:28.042Z,12.6
